sensor_id;sensor_type;location;lat;lon;timestamp;pressure;altitude;pressure_sealevel;temperature;humidity
64340;BME280;63709;53.258;-8.814;2024-01-06T00:00:50;101790.06;;;6.60;100.00
64340;BME280;63709;53.258;-8.814;2024-01-06T00:03:15;101792.88;;;6.57;100.00
64340;BME280;63709;53.258;-8.814;2024-01-06T00:05:41;101787.56;;;6.57;100.00
64340;BME280;63709;53.258;-8.814;2024-01-06T00:08:06;101790.22;;;6.57;100.00
64340;BME280;63709;53.258;-8.814;2024-01-06T00:10:32;101791.25;;;6.52;100.00
64340;BME280;63709;53.258;-8.814;2024-01-06T00:12:57;101801.72;;;6.55;100.00
64340;BME280;63709;53.258;-8.814;2024-01-06T00:15:23;101802.78;;;6.51;100.00
64340;BME280;63709;53.258;-8.814;2024-01-06T00:17:49;101800.25;;;6.48;100.00
64340;BME280;63709;53.258;-8.814;2024-01-06T00:20:14;101808.50;;;6.42;100.00
64340;BME280;63709;53.258;-8.814;2024-01-06T00:22:40;101812.03;;;6.41;100.00
64340;BME280;63709;53.258;-8.814;2024-01-06T00:25:07;101809.16;;;6.47;100.00
64340;BME280;63709;53.258;-8.814;2024-01-06T00:27:33;101812.75;;;6.46;100.00
64340;BME280;63709;53.258;-8.814;2024-01-06T00:29:58;101820.41;;;6.52;100.00
64340;BME280;63709;53.258;-8.814;2024-01-06T00:32:24;101818.16;;;6.43;100.00
64340;BME280;63709;53.258;-8.814;2024-01-06T00:34:49;101819.56;;;6.52;100.00
64340;BME280;63709;53.258;-8.814;2024-01-06T00:37:15;101819.88;;;6.44;100.00
64340;BME280;63709;53.258;-8.814;2024-01-06T00:39:40;101822.94;;;6.55;100.00
64340;BME280;63709;53.258;-8.814;2024-01-06T00:42:06;101820.50;;;6.51;100.00
64340;BME280;63709;53.258;-8.814;2024-01-06T00:44:33;101824.28;;;6.45;100.00
64340;BME280;63709;53.258;-8.814;2024-01-06T00:46:59;101824.19;;;6.47;100.00
64340;BME280;63709;53.258;-8.814;2024-01-06T00:49:24;101828.03;;;6.40;100.00
64340;BME280;63709;53.258;-8.814;2024-01-06T00:51:49;101832.25;;;6.45;100.00
64340;BME280;63709;53.258;-8.814;2024-01-06T00:54:15;101837.91;;;6.36;100.00
64340;BME280;63709;53.258;-8.814;2024-01-06T00:56:41;101830.56;;;6.43;100.00
64340;BME280;63709;53.258;-8.814;2024-01-06T00:59:08;101835.56;;;6.28;100.00
64340;BME280;63709;53.258;-8.814;2024-01-06T01:01:33;101836.53;;;6.26;100.00
64340;BME280;63709;53.258;-8.814;2024-01-06T01:03:59;101828.97;;;6.17;100.00
64340;BME280;63709;53.258;-8.814;2024-01-06T01:06:24;101838.88;;;6.12;100.00
64340;BME280;63709;53.258;-8.814;2024-01-06T01:08:49;101830.25;;;6.06;100.00
64340;BME280;63709;53.258;-8.814;2024-01-06T01:11:15;101831.97;;;6.07;100.00
64340;BME280;63709;53.258;-8.814;2024-01-06T01:13:40;101831.38;;;6.01;100.00
64340;BME280;63709;53.258;-8.814;2024-01-06T01:16:06;101828.16;;;5.93;100.00
64340;BME280;63709;53.258;-8.814;2024-01-06T01:18:31;101836.91;;;5.95;100.00
64340;BME280;63709;53.258;-8.814;2024-01-06T01:20:57;101842.84;;;6.01;100.00
64340;BME280;63709;53.258;-8.814;2024-01-06T01:23:22;101840.75;;;5.86;100.00
64340;BME280;63709;53.258;-8.814;2024-01-06T01:25:48;101833.38;;;5.71;100.00
64340;BME280;63709;53.258;-8.814;2024-01-06T01:28:13;101845.72;;;5.72;100.00
64340;BME280;63709;53.258;-8.814;2024-01-06T01:30:38;101842.03;;;5.76;100.00
64340;BME280;63709;53.258;-8.814;2024-01-06T01:33:04;101843.81;;;5.75;100.00
64340;BME280;63709;53.258;-8.814;2024-01-06T01:35:29;101847.75;;;5.65;100.00
64340;BME280;63709;53.258;-8.814;2024-01-06T01:37:55;101848.50;;;5.69;100.00
64340;BME280;63709;53.258;-8.814;2024-01-06T01:40:20;101846.22;;;5.81;100.00
64340;BME280;63709;53.258;-8.814;2024-01-06T01:42:46;101857.63;;;5.83;100.00
64340;BME280;63709;53.258;-8.814;2024-01-06T01:45:11;101854.06;;;5.61;100.00
64340;BME280;63709;53.258;-8.814;2024-01-06T01:47:37;101847.06;;;5.60;100.00
64340;BME280;63709;53.258;-8.814;2024-01-06T01:50:03;101859.00;;;5.70;100.00
64340;BME280;63709;53.258;-8.814;2024-01-06T01:52:29;101856.97;;;5.78;100.00
64340;BME280;63709;53.258;-8.814;2024-01-06T01:54:55;101856.03;;;5.79;100.00
64340;BME280;63709;53.258;-8.814;2024-01-06T01:57:24;101852.94;;;5.68;100.00
64340;BME280;63709;53.258;-8.814;2024-01-06T01:59:50;101867.81;;;5.71;100.00
64340;BME280;63709;53.258;-8.814;2024-01-06T02:02:16;101873.81;;;5.76;100.00
64340;BME280;63709;53.258;-8.814;2024-01-06T02:04:42;101873.13;;;5.71;100.00
64340;BME280;63709;53.258;-8.814;2024-01-06T02:07:07;101875.25;;;5.61;100.00
64340;BME280;63709;53.258;-8.814;2024-01-06T02:09:33;101883.84;;;5.68;100.00
64340;BME280;63709;53.258;-8.814;2024-01-06T02:11:58;101877.50;;;5.72;100.00
64340;BME280;63709;53.258;-8.814;2024-01-06T02:14:24;101882.69;;;5.75;100.00
64340;BME280;63709;53.258;-8.814;2024-01-06T02:16:49;101881.41;;;5.62;100.00
64340;BME280;63709;53.258;-8.814;2024-01-06T02:19:16;101886.72;;;5.62;100.00
64340;BME280;63709;53.258;-8.814;2024-01-06T02:21:43;101893.44;;;5.70;100.00
64340;BME280;63709;53.258;-8.814;2024-01-06T02:24:09;101897.78;;;5.73;100.00
64340;BME280;63709;53.258;-8.814;2024-01-06T02:26:35;101900.59;;;5.68;100.00
64340;BME280;63709;53.258;-8.814;2024-01-06T02:29:01;101907.53;;;5.71;100.00
64340;BME280;63709;53.258;-8.814;2024-01-06T02:31:29;101912.97;;;5.68;100.00
64340;BME280;63709;53.258;-8.814;2024-01-06T02:33:55;101917.56;;;5.63;100.00
64340;BME280;63709;53.258;-8.814;2024-01-06T02:36:20;101921.63;;;5.73;100.00
64340;BME280;63709;53.258;-8.814;2024-01-06T02:38:46;101930.03;;;5.36;100.00
64340;BME280;63709;53.258;-8.814;2024-01-06T02:41:11;101932.41;;;5.43;100.00
64340;BME280;63709;53.258;-8.814;2024-01-06T02:43:36;101938.63;;;5.42;100.00
64340;BME280;63709;53.258;-8.814;2024-01-06T02:46:02;101941.16;;;5.20;100.00
64340;BME280;63709;53.258;-8.814;2024-01-06T02:48:27;101939.09;;;5.28;100.00
64340;BME280;63709;53.258;-8.814;2024-01-06T02:50:56;101934.56;;;5.32;100.00
64340;BME280;63709;53.258;-8.814;2024-01-06T02:53:21;101940.69;;;5.34;100.00
64340;BME280;63709;53.258;-8.814;2024-01-06T02:55:46;101944.94;;;5.38;100.00
64340;BME280;63709;53.258;-8.814;2024-01-06T02:58:12;101943.91;;;5.42;100.00
64340;BME280;63709;53.258;-8.814;2024-01-06T03:00:37;101942.16;;;5.41;100.00
64340;BME280;63709;53.258;-8.814;2024-01-06T03:03:03;101939.41;;;5.44;100.00
64340;BME280;63709;53.258;-8.814;2024-01-06T03:05:28;101941.31;;;5.41;100.00
64340;BME280;63709;53.258;-8.814;2024-01-06T03:07:54;101949.22;;;5.42;100.00
64340;BME280;63709;53.258;-8.814;2024-01-06T03:10:19;101953.38;;;5.49;100.00
64340;BME280;63709;53.258;-8.814;2024-01-06T03:12:45;101952.66;;;5.44;100.00
64340;BME280;63709;53.258;-8.814;2024-01-06T03:15:10;101948.28;;;5.43;100.00
64340;BME280;63709;53.258;-8.814;2024-01-06T03:17:36;101943.47;;;5.54;100.00
64340;BME280;63709;53.258;-8.814;2024-01-06T03:20:02;101945.63;;;5.43;100.00
64340;BME280;63709;53.258;-8.814;2024-01-06T03:22:29;101951.28;;;5.34;100.00
64340;BME280;63709;53.258;-8.814;2024-01-06T03:24:54;101953.66;;;5.42;100.00
64340;BME280;63709;53.258;-8.814;2024-01-06T03:27:20;101961.53;;;5.43;100.00
64340;BME280;63709;53.258;-8.814;2024-01-06T03:29:45;101961.59;;;5.42;100.00
64340;BME280;63709;53.258;-8.814;2024-01-06T03:32:10;101960.28;;;5.53;100.00
64340;BME280;63709;53.258;-8.814;2024-01-06T03:34:36;101957.13;;;5.67;100.00
64340;BME280;63709;53.258;-8.814;2024-01-06T03:37:01;101948.97;;;5.73;100.00
64340;BME280;63709;53.258;-8.814;2024-01-06T03:39:27;101968.34;;;5.50;100.00
64340;BME280;63709;53.258;-8.814;2024-01-06T03:41:53;101969.38;;;5.46;100.00
64340;BME280;63709;53.258;-8.814;2024-01-06T03:44:19;101974.06;;;5.38;100.00
64340;BME280;63709;53.258;-8.814;2024-01-06T03:46:44;101974.16;;;5.35;100.00
64340;BME280;63709;53.258;-8.814;2024-01-06T03:49:09;101976.00;;;5.33;100.00
64340;BME280;63709;53.258;-8.814;2024-01-06T03:51:35;101981.94;;;5.40;100.00
64340;BME280;63709;53.258;-8.814;2024-01-06T03:54:00;101984.69;;;5.37;100.00
64340;BME280;63709;53.258;-8.814;2024-01-06T03:56:26;101982.13;;;5.35;100.00
64340;BME280;63709;53.258;-8.814;2024-01-06T03:58:51;101985.69;;;5.34;100.00
64340;BME280;63709;53.258;-8.814;2024-01-06T04:01:17;101985.28;;;5.45;100.00
64340;BME280;63709;53.258;-8.814;2024-01-06T04:03:42;101988.84;;;5.44;100.00
64340;BME280;63709;53.258;-8.814;2024-01-06T04:06:08;101980.00;;;5.45;100.00
64340;BME280;63709;53.258;-8.814;2024-01-06T04:08:36;101994.59;;;5.31;100.00
64340;BME280;63709;53.258;-8.814;2024-01-06T04:11:01;101991.28;;;5.25;100.00
64340;BME280;63709;53.258;-8.814;2024-01-06T04:13:27;101993.22;;;5.20;100.00
64340;BME280;63709;53.258;-8.814;2024-01-06T04:15:53;101995.94;;;5.43;100.00
64340;BME280;63709;53.258;-8.814;2024-01-06T04:18:18;102003.28;;;5.35;100.00
64340;BME280;63709;53.258;-8.814;2024-01-06T04:20:44;102006.28;;;5.24;100.00
64340;BME280;63709;53.258;-8.814;2024-01-06T04:23:09;102000.31;;;5.19;100.00
64340;BME280;63709;53.258;-8.814;2024-01-06T04:25:34;102002.44;;;5.08;100.00
64340;BME280;63709;53.258;-8.814;2024-01-06T04:28:00;102009.03;;;5.21;100.00
64340;BME280;63709;53.258;-8.814;2024-01-06T04:30:25;102004.69;;;5.19;100.00
64340;BME280;63709;53.258;-8.814;2024-01-06T04:32:51;102005.81;;;5.12;100.00
64340;BME280;63709;53.258;-8.814;2024-01-06T04:35:17;102008.53;;;5.10;100.00
64340;BME280;63709;53.258;-8.814;2024-01-06T04:37:43;102006.84;;;5.07;100.00
64340;BME280;63709;53.258;-8.814;2024-01-06T04:40:09;102015.53;;;5.11;100.00
64340;BME280;63709;53.258;-8.814;2024-01-06T04:42:35;102017.91;;;5.20;100.00
64340;BME280;63709;53.258;-8.814;2024-01-06T04:45:00;102018.94;;;5.41;100.00
64340;BME280;63709;53.258;-8.814;2024-01-06T04:47:26;102024.06;;;5.21;100.00
64340;BME280;63709;53.258;-8.814;2024-01-06T04:49:53;102031.16;;;5.19;100.00
64340;BME280;63709;53.258;-8.814;2024-01-06T04:52:18;102030.19;;;5.23;100.00
64340;BME280;63709;53.258;-8.814;2024-01-06T04:54:43;102032.75;;;5.24;100.00
64340;BME280;63709;53.258;-8.814;2024-01-06T04:57:09;102036.34;;;5.23;100.00
64340;BME280;63709;53.258;-8.814;2024-01-06T04:59:34;102037.19;;;5.24;100.00
64340;BME280;63709;53.258;-8.814;2024-01-06T05:02:00;102035.69;;;5.15;100.00
64340;BME280;63709;53.258;-8.814;2024-01-06T05:04:26;102050.78;;;5.13;100.00
64340;BME280;63709;53.258;-8.814;2024-01-06T05:06:51;102045.31;;;5.18;100.00
64340;BME280;63709;53.258;-8.814;2024-01-06T05:09:17;102046.53;;;5.07;100.00
64340;BME280;63709;53.258;-8.814;2024-01-06T05:11:43;102045.00;;;5.00;100.00
64340;BME280;63709;53.258;-8.814;2024-01-06T05:14:09;102040.28;;;4.82;100.00
64340;BME280;63709;53.258;-8.814;2024-01-06T05:16:35;102037.97;;;4.99;100.00
64340;BME280;63709;53.258;-8.814;2024-01-06T05:19:00;102046.06;;;4.95;100.00
64340;BME280;63709;53.258;-8.814;2024-01-06T05:21:25;102042.75;;;4.88;100.00
64340;BME280;63709;53.258;-8.814;2024-01-06T05:23:51;102044.38;;;4.92;100.00
64340;BME280;63709;53.258;-8.814;2024-01-06T05:26:16;102054.69;;;5.01;100.00
64340;BME280;63709;53.258;-8.814;2024-01-06T05:28:42;102055.66;;;4.99;100.00
64340;BME280;63709;53.258;-8.814;2024-01-06T05:31:07;102060.25;;;4.92;100.00
64340;BME280;63709;53.258;-8.814;2024-01-06T05:33:33;102059.97;;;5.01;100.00
64340;BME280;63709;53.258;-8.814;2024-01-06T05:35:58;102062.47;;;5.06;100.00
64340;BME280;63709;53.258;-8.814;2024-01-06T05:38:23;102067.16;;;4.98;100.00
64340;BME280;63709;53.258;-8.814;2024-01-06T05:40:49;102063.06;;;5.16;100.00
64340;BME280;63709;53.258;-8.814;2024-01-06T05:43:14;102068.53;;;5.09;100.00
64340;BME280;63709;53.258;-8.814;2024-01-06T05:45:40;102073.66;;;5.16;100.00
64340;BME280;63709;53.258;-8.814;2024-01-06T05:48:10;102072.91;;;5.10;100.00
64340;BME280;63709;53.258;-8.814;2024-01-06T05:50:39;102064.78;;;5.17;100.00
64340;BME280;63709;53.258;-8.814;2024-01-06T05:53:06;102085.00;;;5.19;100.00
64340;BME280;63709;53.258;-8.814;2024-01-06T05:55:31;102092.50;;;5.05;100.00
64340;BME280;63709;53.258;-8.814;2024-01-06T05:57:57;102092.56;;;4.74;100.00
64340;BME280;63709;53.258;-8.814;2024-01-06T06:00:22;102093.84;;;4.90;100.00
64340;BME280;63709;53.258;-8.814;2024-01-06T06:02:48;102089.50;;;4.88;100.00
64340;BME280;63709;53.258;-8.814;2024-01-06T06:05:14;102087.91;;;4.82;100.00
64340;BME280;63709;53.258;-8.814;2024-01-06T06:07:39;102099.41;;;4.81;100.00
64340;BME280;63709;53.258;-8.814;2024-01-06T06:10:07;102101.41;;;4.73;100.00
64340;BME280;63709;53.258;-8.814;2024-01-06T06:12:32;102107.41;;;4.78;100.00
64340;BME280;63709;53.258;-8.814;2024-01-06T06:14:58;102105.78;;;4.74;100.00
64340;BME280;63709;53.258;-8.814;2024-01-06T06:17:23;102111.44;;;4.91;100.00
64340;BME280;63709;53.258;-8.814;2024-01-06T06:19:49;102113.53;;;4.80;100.00
64340;BME280;63709;53.258;-8.814;2024-01-06T06:22:14;102123.84;;;4.89;100.00
64340;BME280;63709;53.258;-8.814;2024-01-06T06:24:39;102112.47;;;4.85;100.00
64340;BME280;63709;53.258;-8.814;2024-01-06T06:27:05;102115.09;;;4.87;100.00
64340;BME280;63709;53.258;-8.814;2024-01-06T06:29:30;102118.53;;;4.89;100.00
64340;BME280;63709;53.258;-8.814;2024-01-06T06:31:56;102118.66;;;4.86;100.00
64340;BME280;63709;53.258;-8.814;2024-01-06T06:34:21;102122.97;;;4.89;100.00
64340;BME280;63709;53.258;-8.814;2024-01-06T06:36:47;102130.41;;;5.05;100.00
64340;BME280;63709;53.258;-8.814;2024-01-06T06:39:12;102132.09;;;5.08;100.00
64340;BME280;63709;53.258;-8.814;2024-01-06T06:41:37;102138.69;;;4.95;100.00
64340;BME280;63709;53.258;-8.814;2024-01-06T06:44:03;102130.88;;;4.90;100.00
64340;BME280;63709;53.258;-8.814;2024-01-06T06:46:29;102137.19;;;4.86;100.00
64340;BME280;63709;53.258;-8.814;2024-01-06T06:48:54;102138.06;;;4.85;100.00
64340;BME280;63709;53.258;-8.814;2024-01-06T06:51:20;102136.09;;;4.62;100.00
64340;BME280;63709;53.258;-8.814;2024-01-06T06:53:50;102136.81;;;4.67;100.00
64340;BME280;63709;53.258;-8.814;2024-01-06T06:56:15;102151.72;;;4.71;100.00
64340;BME280;63709;53.258;-8.814;2024-01-06T06:58:42;102146.28;;;4.76;100.00
64340;BME280;63709;53.258;-8.814;2024-01-06T07:01:08;102152.59;;;4.72;100.00
64340;BME280;63709;53.258;-8.814;2024-01-06T07:03:33;102159.28;;;4.83;100.00
64340;BME280;63709;53.258;-8.814;2024-01-06T07:05:58;102164.72;;;4.79;100.00
64340;BME280;63709;53.258;-8.814;2024-01-06T07:08:24;102173.66;;;4.75;100.00
64340;BME280;63709;53.258;-8.814;2024-01-06T07:10:49;102170.97;;;4.76;100.00
64340;BME280;63709;53.258;-8.814;2024-01-06T07:13:15;102173.84;;;4.67;100.00
64340;BME280;63709;53.258;-8.814;2024-01-06T07:15:40;102182.13;;;4.55;100.00
64340;BME280;63709;53.258;-8.814;2024-01-06T07:18:06;102186.06;;;4.42;100.00
64340;BME280;63709;53.258;-8.814;2024-01-06T07:20:32;102191.22;;;4.45;100.00
64340;BME280;63709;53.258;-8.814;2024-01-06T07:22:57;102182.97;;;4.57;100.00
64340;BME280;63709;53.258;-8.814;2024-01-06T07:25:23;102182.00;;;4.59;100.00
64340;BME280;63709;53.258;-8.814;2024-01-06T07:27:48;102186.34;;;4.62;100.00
64340;BME280;63709;53.258;-8.814;2024-01-06T07:30:14;102187.22;;;4.63;100.00
64340;BME280;63709;53.258;-8.814;2024-01-06T07:32:39;102193.41;;;4.61;100.00
64340;BME280;63709;53.258;-8.814;2024-01-06T07:35:05;102199.72;;;4.57;100.00
64340;BME280;63709;53.258;-8.814;2024-01-06T07:37:30;102200.06;;;4.45;100.00
64340;BME280;63709;53.258;-8.814;2024-01-06T07:39:56;102213.22;;;4.47;100.00
64340;BME280;63709;53.258;-8.814;2024-01-06T07:42:21;102213.13;;;4.50;100.00
64340;BME280;63709;53.258;-8.814;2024-01-06T07:44:47;102223.72;;;4.48;100.00
64340;BME280;63709;53.258;-8.814;2024-01-06T07:47:12;102217.44;;;4.52;100.00
64340;BME280;63709;53.258;-8.814;2024-01-06T07:49:38;102231.06;;;4.71;100.00
64340;BME280;63709;53.258;-8.814;2024-01-06T07:52:04;102236.75;;;4.56;100.00
64340;BME280;63709;53.258;-8.814;2024-01-06T07:54:29;102236.47;;;4.67;100.00
64340;BME280;63709;53.258;-8.814;2024-01-06T07:56:55;102244.56;;;4.60;100.00
64340;BME280;63709;53.258;-8.814;2024-01-06T07:59:20;102246.72;;;4.46;100.00
64340;BME280;63709;53.258;-8.814;2024-01-06T08:01:46;102253.63;;;4.18;100.00
64340;BME280;63709;53.258;-8.814;2024-01-06T08:04:11;102255.78;;;4.38;100.00
64340;BME280;63709;53.258;-8.814;2024-01-06T08:06:37;102255.06;;;4.29;100.00
64340;BME280;63709;53.258;-8.814;2024-01-06T08:09:02;102259.88;;;4.49;100.00
64340;BME280;63709;53.258;-8.814;2024-01-06T08:11:28;102262.50;;;4.49;100.00
64340;BME280;63709;53.258;-8.814;2024-01-06T08:13:54;102261.72;;;4.46;100.00
64340;BME280;63709;53.258;-8.814;2024-01-06T08:16:20;102258.03;;;4.51;100.00
64340;BME280;63709;53.258;-8.814;2024-01-06T08:18:45;102269.53;;;4.50;100.00
64340;BME280;63709;53.258;-8.814;2024-01-06T08:21:11;102274.22;;;4.39;100.00
64340;BME280;63709;53.258;-8.814;2024-01-06T08:23:37;102275.94;;;4.42;100.00
64340;BME280;63709;53.258;-8.814;2024-01-06T08:26:02;102272.56;;;4.35;100.00
64340;BME280;63709;53.258;-8.814;2024-01-06T08:28:29;102282.03;;;4.44;100.00
64340;BME280;63709;53.258;-8.814;2024-01-06T08:30:55;102292.66;;;4.41;100.00
64340;BME280;63709;53.258;-8.814;2024-01-06T08:33:20;102292.66;;;4.42;100.00
64340;BME280;63709;53.258;-8.814;2024-01-06T08:35:46;102298.81;;;4.41;100.00
64340;BME280;63709;53.258;-8.814;2024-01-06T08:38:11;102299.91;;;4.34;100.00
64340;BME280;63709;53.258;-8.814;2024-01-06T08:40:37;102308.53;;;4.41;100.00
64340;BME280;63709;53.258;-8.814;2024-01-06T08:43:03;102308.50;;;4.42;100.00
64340;BME280;63709;53.258;-8.814;2024-01-06T08:45:28;102306.00;;;4.36;100.00
64340;BME280;63709;53.258;-8.814;2024-01-06T08:47:54;102308.59;;;4.39;100.00
64340;BME280;63709;53.258;-8.814;2024-01-06T08:50:20;102311.97;;;4.44;100.00
64340;BME280;63709;53.258;-8.814;2024-01-06T08:52:45;102311.03;;;4.47;100.00
64340;BME280;63709;53.258;-8.814;2024-01-06T08:55:11;102310.16;;;4.46;100.00
64340;BME280;63709;53.258;-8.814;2024-01-06T08:57:36;102310.13;;;4.48;100.00
64340;BME280;63709;53.258;-8.814;2024-01-06T09:00:03;102317.31;;;4.41;100.00
64340;BME280;63709;53.258;-8.814;2024-01-06T09:02:29;102328.44;;;4.20;100.00
64340;BME280;63709;53.258;-8.814;2024-01-06T09:04:54;102330.06;;;4.25;100.00
64340;BME280;63709;53.258;-8.814;2024-01-06T09:07:20;102337.72;;;4.36;100.00
64340;BME280;63709;53.258;-8.814;2024-01-06T09:09:45;102343.03;;;4.36;100.00
64340;BME280;63709;53.258;-8.814;2024-01-06T09:12:11;102337.59;;;4.42;100.00
64340;BME280;63709;53.258;-8.814;2024-01-06T09:14:36;102348.97;;;4.44;100.00
64340;BME280;63709;53.258;-8.814;2024-01-06T09:17:02;102350.75;;;4.45;100.00
64340;BME280;63709;53.258;-8.814;2024-01-06T09:19:27;102350.63;;;4.48;100.00
64340;BME280;63709;53.258;-8.814;2024-01-06T09:21:54;102353.34;;;4.47;100.00
64340;BME280;63709;53.258;-8.814;2024-01-06T09:24:20;102356.78;;;4.50;100.00
64340;BME280;63709;53.258;-8.814;2024-01-06T09:26:45;102361.19;;;4.50;100.00
64340;BME280;63709;53.258;-8.814;2024-01-06T09:29:11;102362.13;;;4.47;100.00
64340;BME280;63709;53.258;-8.814;2024-01-06T09:31:37;102366.38;;;4.54;100.00
64340;BME280;63709;53.258;-8.814;2024-01-06T09:34:02;102364.78;;;4.47;100.00
64340;BME280;63709;53.258;-8.814;2024-01-06T09:36:32;102357.44;;;4.58;100.00
64340;BME280;63709;53.258;-8.814;2024-01-06T09:38:57;102368.88;;;4.59;100.00
64340;BME280;63709;53.258;-8.814;2024-01-06T09:41:23;102376.94;;;4.54;100.00
64340;BME280;63709;53.258;-8.814;2024-01-06T09:43:50;102391.88;;;4.20;100.00
64340;BME280;63709;53.258;-8.814;2024-01-06T09:48:48;102400.91;;;4.09;100.00
64340;BME280;63709;53.258;-8.814;2024-01-06T09:51:19;102395.13;;;4.31;100.00
64340;BME280;63709;53.258;-8.814;2024-01-06T09:54:04;102400.13;;;4.43;100.00
64340;BME280;63709;53.258;-8.814;2024-01-06T09:56:33;102397.66;;;4.35;100.00
64340;BME280;63709;53.258;-8.814;2024-01-06T09:58:59;102396.56;;;4.44;100.00
64340;BME280;63709;53.258;-8.814;2024-01-06T10:01:24;102400.41;;;4.67;100.00
64340;BME280;63709;53.258;-8.814;2024-01-06T10:03:50;102402.78;;;4.79;100.00
64340;BME280;63709;53.258;-8.814;2024-01-06T10:06:16;102401.63;;;4.89;100.00
64340;BME280;63709;53.258;-8.814;2024-01-06T10:08:43;102396.75;;;5.06;100.00
64340;BME280;63709;53.258;-8.814;2024-01-06T10:11:08;102408.69;;;5.23;100.00
64340;BME280;63709;53.258;-8.814;2024-01-06T10:13:35;102406.56;;;5.36;100.00
64340;BME280;63709;53.258;-8.814;2024-01-06T10:16:00;102410.34;;;5.58;100.00
64340;BME280;63709;53.258;-8.814;2024-01-06T10:18:27;102404.59;;;5.73;100.00
64340;BME280;63709;53.258;-8.814;2024-01-06T10:20:55;102406.00;;;6.16;100.00
64340;BME280;63709;53.258;-8.814;2024-01-06T10:23:22;102407.44;;;5.98;100.00
64340;BME280;63709;53.258;-8.814;2024-01-06T10:25:52;102395.19;;;6.22;100.00
64340;BME280;63709;53.258;-8.814;2024-01-06T10:28:17;102410.34;;;6.73;100.00
64340;BME280;63709;53.258;-8.814;2024-01-06T10:30:43;102404.44;;;7.17;100.00
64340;BME280;63709;53.258;-8.814;2024-01-06T10:33:09;102415.19;;;7.39;100.00
64340;BME280;63709;53.258;-8.814;2024-01-06T10:35:36;102410.09;;;7.56;100.00
64340;BME280;63709;53.258;-8.814;2024-01-06T10:38:02;102416.47;;;7.99;100.00
64340;BME280;63709;53.258;-8.814;2024-01-06T10:40:28;102415.09;;;7.89;100.00
64340;BME280;63709;53.258;-8.814;2024-01-06T10:42:55;102412.66;;;8.06;100.00
64340;BME280;63709;53.258;-8.814;2024-01-06T10:45:23;102418.16;;;8.02;100.00
64340;BME280;63709;53.258;-8.814;2024-01-06T10:47:49;102427.34;;;7.69;100.00
64340;BME280;63709;53.258;-8.814;2024-01-06T10:50:17;102423.25;;;7.36;100.00
64340;BME280;63709;53.258;-8.814;2024-01-06T10:52:43;102428.19;;;7.21;100.00
64340;BME280;63709;53.258;-8.814;2024-01-06T10:55:09;102430.66;;;7.51;100.00
64340;BME280;63709;53.258;-8.814;2024-01-06T10:57:37;102429.88;;;7.72;100.00
64340;BME280;63709;53.258;-8.814;2024-01-06T11:00:03;102429.84;;;7.97;100.00
64340;BME280;63709;53.258;-8.814;2024-01-06T11:02:31;102429.00;;;8.19;100.00
64340;BME280;63709;53.258;-8.814;2024-01-06T11:04:57;102439.03;;;8.12;100.00
64340;BME280;63709;53.258;-8.814;2024-01-06T11:07:24;102428.53;;;8.31;100.00
64340;BME280;63709;53.258;-8.814;2024-01-06T11:12:17;102439.31;;;8.72;100.00
64340;BME280;63709;53.258;-8.814;2024-01-06T11:14:42;102445.97;;;8.82;100.00
64340;BME280;63709;53.258;-8.814;2024-01-06T11:17:08;102442.44;;;9.04;100.00
64340;BME280;63709;53.258;-8.814;2024-01-06T11:22:28;102448.81;;;9.00;100.00
64340;BME280;63709;53.258;-8.814;2024-01-06T11:25:03;102452.00;;;9.08;100.00
64340;BME280;63709;53.258;-8.814;2024-01-06T11:27:30;102454.16;;;9.40;100.00
64340;BME280;63709;53.258;-8.814;2024-01-06T11:29:56;102457.97;;;9.14;100.00
64340;BME280;63709;53.258;-8.814;2024-01-06T11:32:28;102437.09;;;8.83;100.00
64340;BME280;63709;53.258;-8.814;2024-01-06T11:34:55;102452.09;;;9.06;100.00
64340;BME280;63709;53.258;-8.814;2024-01-06T11:37:35;102433.41;;;9.28;100.00
64340;BME280;63709;53.258;-8.814;2024-01-06T11:40:02;102451.06;;;9.90;100.00
64340;BME280;63709;53.258;-8.814;2024-01-06T11:42:33;102445.59;;;10.31;100.00
64340;BME280;63709;53.258;-8.814;2024-01-06T11:45:04;102444.69;;;10.12;100.00
64340;BME280;63709;53.258;-8.814;2024-01-06T11:47:34;102447.56;;;10.28;100.00
64340;BME280;63709;53.258;-8.814;2024-01-06T11:50:01;102452.06;;;10.45;100.00
64340;BME280;63709;53.258;-8.814;2024-01-06T11:52:33;102453.28;;;10.56;100.00
64340;BME280;63709;53.258;-8.814;2024-01-06T11:54:59;102455.84;;;10.40;100.00
64340;BME280;63709;53.258;-8.814;2024-01-06T11:57:26;102435.47;;;10.19;100.00
64340;BME280;63709;53.258;-8.814;2024-01-06T11:59:52;102453.16;;;10.40;100.00
64340;BME280;63709;53.258;-8.814;2024-01-06T12:02:18;102455.41;;;10.50;100.00
64340;BME280;63709;53.258;-8.814;2024-01-06T12:04:53;102455.03;;;10.57;100.00
64340;BME280;63709;53.258;-8.814;2024-01-06T12:07:20;102455.09;;;10.56;100.00
64340;BME280;63709;53.258;-8.814;2024-01-06T12:10:03;102459.19;;;10.63;100.00
64340;BME280;63709;53.258;-8.814;2024-01-06T12:12:29;102456.72;;;10.77;100.00
64340;BME280;63709;53.258;-8.814;2024-01-06T12:14:54;102462.84;;;10.97;100.00
64340;BME280;63709;53.258;-8.814;2024-01-06T12:17:21;102457.69;;;11.11;100.00
64340;BME280;63709;53.258;-8.814;2024-01-06T12:19:47;102447.00;;;11.28;100.00
64340;BME280;63709;53.258;-8.814;2024-01-06T12:22:13;102453.13;;;11.48;100.00
64340;BME280;63709;53.258;-8.814;2024-01-06T12:24:39;102457.00;;;11.75;100.00
64340;BME280;63709;53.258;-8.814;2024-01-06T12:27:07;102456.22;;;11.91;100.00
64340;BME280;63709;53.258;-8.814;2024-01-06T12:29:40;102452.69;;;12.06;100.00
64340;BME280;63709;53.258;-8.814;2024-01-06T12:32:06;102452.94;;;12.01;100.00
64340;BME280;63709;53.258;-8.814;2024-01-06T12:34:32;102458.69;;;11.94;100.00
64340;BME280;63709;53.258;-8.814;2024-01-06T12:36:58;102456.44;;;11.86;100.00
64340;BME280;63709;53.258;-8.814;2024-01-06T12:39:27;102459.34;;;11.99;100.00